createdAt,value
2017-12-11T00:00:53.739Z,77.60
2017-12-11T00:03:21.998Z,78.00
2017-12-11T00:05:49.514Z,78.00
2017-12-11T00:08:17.002Z,78.20
2017-12-11T00:10:44.520Z,78.30
2017-12-11T00:13:12.011Z,78.60
2017-12-11T00:15:39.543Z,79.40
2017-12-11T00:18:07.039Z,79.60
2017-12-11T00:20:34.554Z,80.20
2017-12-11T00:23:02.051Z,80.70
2017-12-11T00:25:29.563Z,80.80
2017-12-11T00:27:57.055Z,81.40
2017-12-11T00:30:24.567Z,82.80
2017-12-11T00:32:52.071Z,83.10
2017-12-11T00:35:19.587Z,83.60
2017-12-11T00:37:47.848Z,83.70
2017-12-11T00:40:16.128Z,83.90
2017-12-11T00:42:44.388Z,84.10
2017-12-11T00:45:11.907Z,84.10
2017-12-11T00:47:39.403Z,84.10
2017-12-11T00:50:06.924Z,83.40
2017-12-11T00:52:34.419Z,83.40
2017-12-11T00:55:01.935Z,83.40
2017-12-11T00:57:29.422Z,83.50
2017-12-11T00:59:56.943Z,83.20
2017-12-11T01:02:24.438Z,83.10
2017-12-11T01:04:51.959Z,83.10
2017-12-11T01:07:19.456Z,82.80
2017-12-11T01:09:46.978Z,83.00
2017-12-11T01:12:14.481Z,82.90
2017-12-11T01:14:41.999Z,82.80
2017-12-11T01:17:09.491Z,83.50
2017-12-11T01:19:38.637Z,83.00
2017-12-11T01:22:06.127Z,82.80
2017-12-11T01:24:33.643Z,82.90
2017-12-11T01:27:01.902Z,83.90
2017-12-11T01:29:29.419Z,83.80
2017-12-11T01:31:56.911Z,84.30
2017-12-11T01:34:24.427Z,84.60
2017-12-11T01:36:51.923Z,84.70
2017-12-11T01:39:19.439Z,85.40
2017-12-11T01:41:46.935Z,85.70
2017-12-11T01:44:14.451Z,86.20
2017-12-11T01:46:41.939Z,86.20
2017-12-11T01:49:09.459Z,86.70
2017-12-11T01:51:36.963Z,86.60
2017-12-11T01:54:04.475Z,87.20
2017-12-11T01:56:31.969Z,87.10
2017-12-11T01:58:59.487Z,87.20
2017-12-11T02:01:26.983Z,87.60
2017-12-11T02:03:54.503Z,87.90
2017-12-11T02:06:21.999Z,88.50
2017-12-11T02:08:49.519Z,88.80
2017-12-11T02:11:17.009Z,88.80
2017-12-11T02:13:44.527Z,89.70
2017-12-11T02:16:12.791Z,89.80
2017-12-11T02:18:41.079Z,90.10
2017-12-11T02:21:09.344Z,90.20
2017-12-11T02:23:37.631Z,90.50
2017-12-11T02:26:05.897Z,90.60
2017-12-11T02:28:34.174Z,90.80
2017-12-11T02:31:02.427Z,90.90
2017-12-11T02:33:31.451Z,91.00
2017-12-11T02:35:59.719Z,91.20
2017-12-11T02:38:28.003Z,91.30
2017-12-11T02:40:56.257Z,91.40
2017-12-11T02:43:23.776Z,91.40
2017-12-11T02:45:51.266Z,91.40
2017-12-11T02:48:18.786Z,91.40
2017-12-11T02:50:46.278Z,91.50
2017-12-11T02:53:13.799Z,91.50
2017-12-11T02:55:41.300Z,91.60
2017-12-11T02:58:08.819Z,91.50
2017-12-11T03:00:36.311Z,91.60
2017-12-11T03:03:03.825Z,91.70
2017-12-11T03:05:31.319Z,91.70
2017-12-11T03:07:58.835Z,91.80
2017-12-11T03:10:26.327Z,91.80
2017-12-11T03:12:53.819Z,91.80
2017-12-11T03:15:21.355Z,91.90
2017-12-11T03:17:48.850Z,91.80
2017-12-11T03:20:17.136Z,91.80
2017-12-11T03:22:45.395Z,91.80
2017-12-11T03:25:13.674Z,92.10
2017-12-11T03:27:41.931Z,91.80
2017-12-11T03:30:09.451Z,91.70
2017-12-11T03:32:36.947Z,91.70
2017-12-11T03:35:04.463Z,91.70
2017-12-11T03:37:31.955Z,91.70
2017-12-11T03:39:59.472Z,91.70
2017-12-11T03:42:26.961Z,91.80
2017-12-11T03:44:54.470Z,91.90
2017-12-11T03:47:22.737Z,92.00
2017-12-11T03:49:51.017Z,92.10
2017-12-11T03:52:19.271Z,92.30
2017-12-11T03:54:46.775Z,92.20
2017-12-11T03:57:14.262Z,92.40
2017-12-11T03:59:41.769Z,92.50
2017-12-11T04:02:10.018Z,92.60
2017-12-11T04:04:37.526Z,92.60
2017-12-11T04:07:05.015Z,92.60
2017-12-11T04:09:32.522Z,92.70
2017-12-11T04:12:00.775Z,92.80
2017-12-11T04:14:28.282Z,92.80
2017-12-11T04:16:55.774Z,92.80
2017-12-11T04:19:23.281Z,93.10
2017-12-11T04:21:50.769Z,93.20
2017-12-11T04:24:18.274Z,93.30
2017-12-11T04:26:46.526Z,93.60
2017-12-11T04:29:14.039Z,93.50
2017-12-11T04:31:41.526Z,93.50
2017-12-11T04:34:09.035Z,93.60
2017-12-11T04:36:37.286Z,93.60
2017-12-11T04:39:04.801Z,93.60
2017-12-11T04:41:32.288Z,93.60
2017-12-11T04:43:59.796Z,93.60
2017-12-11T04:46:27.286Z,93.50
2017-12-11T04:48:54.794Z,93.50
2017-12-11T04:51:23.053Z,93.70
2017-12-11T04:53:50.563Z,93.60
2017-12-11T04:56:18.048Z,93.70
2017-12-11T04:58:45.557Z,93.70
2017-12-11T05:01:13.813Z,94.00
2017-12-11T05:03:41.323Z,94.00
2017-12-11T05:06:08.809Z,94.10
2017-12-11T05:08:36.318Z,94.30
2017-12-11T05:11:03.810Z,94.40
2017-12-11T05:13:31.318Z,94.50
2017-12-11T05:15:59.570Z,94.70
2017-12-11T05:18:27.074Z,94.70
2017-12-11T05:21:00.502Z,94.80
2017-12-11T05:23:28.018Z,94.80
2017-12-11T05:25:56.269Z,94.90
2017-12-11T05:28:23.781Z,94.90
2017-12-11T05:30:51.270Z,95.00
2017-12-11T05:33:18.778Z,95.00
2017-12-11T05:35:46.270Z,95.00
2017-12-11T05:38:13.779Z,95.00
2017-12-11T05:40:42.035Z,95.00
2017-12-11T05:43:09.542Z,94.90
2017-12-11T05:45:37.029Z,94.90
2017-12-11T05:48:04.538Z,95.00
2017-12-11T05:50:32.030Z,95.00
2017-12-11T05:52:59.537Z,95.10
2017-12-11T05:55:27.785Z,95.10
2017-12-11T05:57:55.300Z,95.00
2017-12-11T06:00:22.788Z,95.00
2017-12-11T06:02:50.302Z,94.80
2017-12-11T06:05:18.556Z,94.30
2017-12-11T06:07:46.062Z,94.30
2017-12-11T06:10:13.546Z,94.00
2017-12-11T06:12:41.051Z,93.90
2017-12-11T06:15:09.302Z,93.10
2017-12-11T06:17:36.822Z,93.00
2017-12-11T06:20:04.310Z,92.70
2017-12-11T06:22:31.823Z,92.40
2017-12-11T06:24:59.314Z,92.30
2017-12-11T06:27:26.822Z,92.20
2017-12-11T06:29:54.314Z,92.10
2017-12-11T06:32:21.822Z,91.80
2017-12-11T06:34:50.074Z,91.60
2017-12-11T06:37:17.587Z,91.60
2017-12-11T06:39:45.083Z,91.70
2017-12-11T06:42:12.589Z,91.50
2017-12-11T06:44:40.845Z,91.70
2017-12-11T06:47:09.122Z,92.40
2017-12-11T06:49:37.374Z,92.30
2017-12-11T06:52:04.887Z,92.20
2017-12-11T06:54:32.375Z,92.40
2017-12-11T06:56:59.886Z,92.40
2017-12-11T06:59:28.143Z,92.70
2017-12-11T07:01:55.650Z,92.60
2017-12-11T07:04:23.138Z,92.60
2017-12-11T07:06:50.646Z,92.70
2017-12-11T07:09:18.134Z,92.70
2017-12-11T07:11:45.642Z,93.30
2017-12-11T07:14:13.886Z,93.10
2017-12-11T07:16:41.398Z,93.10
2017-12-11T07:19:08.882Z,93.30
2017-12-11T07:21:36.386Z,93.20
2017-12-11T07:24:03.874Z,93.30
2017-12-11T07:26:31.387Z,93.70
2017-12-11T07:28:58.874Z,93.50
2017-12-11T07:31:27.154Z,93.90
2017-12-11T07:33:55.412Z,93.80
2017-12-11T07:36:22.922Z,93.80
2017-12-11T07:38:50.411Z,94.00
2017-12-11T07:41:17.919Z,94.00
2017-12-11T07:43:45.554Z,93.90
2017-12-11T07:46:13.832Z,94.00
2017-12-11T07:48:42.096Z,94.20
2017-12-11T07:51:09.590Z,94.10
2017-12-11T07:53:37.102Z,94.20
2017-12-11T07:56:04.586Z,94.20
2017-12-11T07:58:32.857Z,94.30
2017-12-11T08:01:01.113Z,94.30
2017-12-11T08:03:28.618Z,94.30
2017-12-11T08:05:56.104Z,94.40
2017-12-11T08:08:23.614Z,94.30
2017-12-11T08:10:51.870Z,95.40
2017-12-11T08:13:19.378Z,95.30
2017-12-11T08:15:46.873Z,95.30
2017-12-11T08:18:14.384Z,94.80
2017-12-11T08:20:41.870Z,94.90
2017-12-11T08:23:09.381Z,94.80
2017-12-11T08:25:37.630Z,95.10
2017-12-11T08:28:05.142Z,95.10
2017-12-11T08:30:32.635Z,95.00
2017-12-11T08:33:00.150Z,95.00
2017-12-11T08:35:27.634Z,95.10
2017-12-11T08:37:55.141Z,95.00
2017-12-11T08:40:23.394Z,95.10
2017-12-11T08:42:50.903Z,95.00
2017-12-11T08:45:18.390Z,95.00
2017-12-11T08:47:45.903Z,95.00
2017-12-11T08:50:13.389Z,95.10
2017-12-11T08:52:40.906Z,95.10
2017-12-11T08:55:09.158Z,95.20
2017-12-11T08:57:36.672Z,95.20
2017-12-11T09:00:04.158Z,95.50
2017-12-11T09:02:31.670Z,95.20
2017-12-11T09:04:59.922Z,95.00
2017-12-11T09:07:27.430Z,95.00
2017-12-11T09:09:54.914Z,94.80
2017-12-11T09:12:22.424Z,94.70
2017-12-11T09:14:50.674Z,94.40
2017-12-11T09:17:18.178Z,94.40
2017-12-11T09:19:45.667Z,94.60
2017-12-11T09:22:13.174Z,94.70
2017-12-11T09:24:41.426Z,95.30
2017-12-11T09:27:08.935Z,95.30
2017-12-11T09:29:36.422Z,95.30
2017-12-11T09:32:03.934Z,95.70
2017-12-11T09:34:31.437Z,95.40
2017-12-11T09:36:58.942Z,95.60
2017-12-11T09:39:27.193Z,95.90
2017-12-11T09:41:54.706Z,95.90
2017-12-11T09:44:22.198Z,96.00
2017-12-11T09:46:49.712Z,96.10
2017-12-11T09:49:17.206Z,96.10
2017-12-11T09:51:44.716Z,96.30
2017-12-11T09:54:12.217Z,96.40
2017-12-11T09:56:39.731Z,96.60
2017-12-11T09:59:07.222Z,96.60
2017-12-11T10:01:34.743Z,96.60
2017-12-11T10:04:02.234Z,96.70
2017-12-11T10:06:29.750Z,96.70
2017-12-11T10:08:58.011Z,96.60
2017-12-11T10:11:25.522Z,96.60
2017-12-11T10:13:53.006Z,96.90
2017-12-11T10:16:20.514Z,96.50
2017-12-11T10:18:48.002Z,96.50
2017-12-11T10:21:15.518Z,96.30
2017-12-11T10:23:43.774Z,96.10
2017-12-11T10:26:12.049Z,96.10
2017-12-11T10:28:39.538Z,96.20
2017-12-11T10:31:07.046Z,96.20
2017-12-11T10:33:34.541Z,96.10
2017-12-11T10:36:02.818Z,95.60
2017-12-11T10:38:31.066Z,95.70
2017-12-11T10:40:58.577Z,95.70
2017-12-11T10:43:26.066Z,95.70
2017-12-11T10:45:53.570Z,95.40
2017-12-11T10:48:21.825Z,95.50
2017-12-11T10:50:49.334Z,95.50
2017-12-11T10:53:16.819Z,95.30
2017-12-11T10:55:44.326Z,95.40
2017-12-11T10:58:12.586Z,95.60
2017-12-11T11:00:40.094Z,95.60
2017-12-11T11:03:07.578Z,95.50
2017-12-11T11:05:35.082Z,95.30
2017-12-11T11:08:02.570Z,95.50
2017-12-11T11:10:30.079Z,95.30
2017-12-11T11:12:58.334Z,95.30
2017-12-11T11:15:25.838Z,95.30
2017-12-11T11:17:53.323Z,95.00
2017-12-11T11:20:20.834Z,95.00
2017-12-11T11:22:49.086Z,95.00
2017-12-11T11:25:16.590Z,95.00
2017-12-11T11:27:44.073Z,95.20
2017-12-11T11:30:11.582Z,95.40
2017-12-11T11:32:39.839Z,95.40
2017-12-11T11:35:07.322Z,95.30
2017-12-11T11:37:38.529Z,95.20
2017-12-11T11:40:03.114Z,95.20
2017-12-11T11:42:30.626Z,95.50
2017-12-11T11:44:58.114Z,95.40
2017-12-11T11:47:25.623Z,95.40
2017-12-11T11:49:53.873Z,95.50
2017-12-11T11:52:21.377Z,95.40
2017-12-11T11:54:48.863Z,95.50
2017-12-11T11:57:16.373Z,95.30
2017-12-11T11:59:44.626Z,95.60
2017-12-11T12:02:12.134Z,95.60
2017-12-11T12:04:39.624Z,95.50
2017-12-11T12:07:07.131Z,95.60
2017-12-11T12:09:35.382Z,95.70
2017-12-11T12:12:02.894Z,95.60
2017-12-11T12:14:30.377Z,95.60
2017-12-11T12:16:57.881Z,95.60
2017-12-11T12:19:26.129Z,95.80
2017-12-11T12:21:53.637Z,95.80
2017-12-11T12:24:21.122Z,95.40
2017-12-11T12:26:48.630Z,95.50
2017-12-11T12:29:16.878Z,94.90
2017-12-11T12:31:44.387Z,94.80
2017-12-11T12:34:11.874Z,94.90
2017-12-11T12:36:39.378Z,95.00
2017-12-11T12:39:07.632Z,94.40
2017-12-11T12:41:35.146Z,94.40
2017-12-11T12:44:02.630Z,94.10
2017-12-11T12:46:30.138Z,94.30
2017-12-11T12:48:58.389Z,94.50
2017-12-11T12:51:25.897Z,94.50
2017-12-11T12:53:53.384Z,94.50
2017-12-11T12:56:20.890Z,94.50
2017-12-11T12:58:49.142Z,94.40
2017-12-11T13:01:16.651Z,94.30
2017-12-11T13:03:44.147Z,94.50
2017-12-11T13:06:11.655Z,94.30
2017-12-11T13:08:39.158Z,94.30
2017-12-11T13:11:06.670Z,94.60
2017-12-11T13:13:34.155Z,94.80
2017-12-11T13:16:01.662Z,94.80
2017-12-11T13:18:29.914Z,95.00
2017-12-11T13:20:57.424Z,95.00
2017-12-11T13:23:24.910Z,95.20
2017-12-11T13:25:52.422Z,95.20
2017-12-11T13:28:20.674Z,94.80
2017-12-11T13:30:48.187Z,94.80
2017-12-11T13:33:15.674Z,94.80
2017-12-11T13:35:43.183Z,95.10
2017-12-11T13:38:10.671Z,94.70
2017-12-11T13:40:38.178Z,94.90
2017-12-11T13:43:06.432Z,95.10
2017-12-11T13:45:33.947Z,95.10
2017-12-11T13:48:01.434Z,95.20
2017-12-11T13:50:28.942Z,94.80
2017-12-11T13:52:57.195Z,94.80
2017-12-11T13:55:25.479Z,95.50
2017-12-11T13:57:53.732Z,94.90
2017-12-11T14:00:21.237Z,94.90
2017-12-11T14:02:48.721Z,94.90
2017-12-11T14:05:16.226Z,94.90
2017-12-11T14:07:44.481Z,94.90
2017-12-11T14:10:11.998Z,94.90
2017-12-11T14:12:39.491Z,95.00
2017-12-11T14:15:07.007Z,95.00
2017-12-11T14:17:34.494Z,95.20
2017-12-11T14:20:02.002Z,95.30
2017-12-11T14:22:30.255Z,95.10
2017-12-11T14:24:57.765Z,95.10
2017-12-11T14:27:25.251Z,95.10
2017-12-11T14:29:52.758Z,95.30
2017-12-11T14:32:21.021Z,95.50
2017-12-11T14:34:49.306Z,95.70
2017-12-11T14:37:17.558Z,95.80
2017-12-11T14:39:45.066Z,95.80
2017-12-11T14:42:12.555Z,95.90
2017-12-11T14:44:40.066Z,96.20
2017-12-11T14:47:07.554Z,96.20
2017-12-11T14:49:35.062Z,96.40
2017-12-11T14:52:03.319Z,96.50
2017-12-11T14:54:30.832Z,96.50
2017-12-11T14:56:58.326Z,96.40
2017-12-11T14:59:25.815Z,96.30
2017-12-11T15:01:54.094Z,96.30
2017-12-11T15:04:22.351Z,96.30
2017-12-11T15:06:49.857Z,96.20
2017-12-11T15:09:17.354Z,96.30
2017-12-11T15:11:44.867Z,96.30
2017-12-11T15:14:12.358Z,96.30
2017-12-11T15:16:39.874Z,96.20
2017-12-11T15:19:08.129Z,96.20
2017-12-11T15:21:36.405Z,96.30
2017-12-11T15:24:03.889Z,96.20
2017-12-11T15:26:31.406Z,96.60
2017-12-11T15:28:58.896Z,96.30
2017-12-11T15:31:27.176Z,96.40
2017-12-11T15:33:55.431Z,96.30
2017-12-11T15:36:22.943Z,96.30
2017-12-11T15:38:50.456Z,96.50
2017-12-11T15:41:18.736Z,96.40
2017-12-11T15:43:46.991Z,96.20
2017-12-11T15:46:14.498Z,96.20
2017-12-11T15:48:41.986Z,96.30
2017-12-11T15:51:09.503Z,96.20
2017-12-11T15:53:36.990Z,96.30
2017-12-11T15:56:04.498Z,96.30
2017-12-11T15:58:32.750Z,96.30
2017-12-11T16:01:00.263Z,96.30
2017-12-11T16:03:27.747Z,96.40
2017-12-11T16:05:55.249Z,96.30
2017-12-11T16:08:23.501Z,96.30
2017-12-11T16:10:51.010Z,96.30
2017-12-11T16:13:18.499Z,96.30
2017-12-11T16:15:46.023Z,96.20
2017-12-11T16:18:13.514Z,96.10
2017-12-11T16:20:41.023Z,96.20
2017-12-11T16:23:09.278Z,96.30
2017-12-11T16:25:36.787Z,96.30
2017-12-11T16:28:04.274Z,96.30
2017-12-11T16:30:31.782Z,96.40
2017-12-11T16:33:00.030Z,96.40
2017-12-11T16:35:28.309Z,96.50
2017-12-11T16:37:55.794Z,96.60
2017-12-11T16:40:23.321Z,96.70
2017-12-11T16:42:50.802Z,96.80
2017-12-11T16:45:19.078Z,96.80
2017-12-11T16:47:47.330Z,96.90
2017-12-11T16:50:14.838Z,96.90
2017-12-11T16:52:42.332Z,97.00
2017-12-11T16:55:09.847Z,97.10
2017-12-11T16:57:37.336Z,97.20
2017-12-11T17:00:04.858Z,97.30
2017-12-11T17:02:32.346Z,97.40
2017-12-11T17:04:59.918Z,97.40
2017-12-11T17:07:27.366Z,97.40
2017-12-11T17:09:54.878Z,97.40
2017-12-11T17:12:23.142Z,97.60
2017-12-11T17:14:51.422Z,97.60
2017-12-11T17:17:19.678Z,97.60
2017-12-11T17:19:47.191Z,97.60
2017-12-11T17:22:14.682Z,97.60
2017-12-11T17:24:42.194Z,97.50
2017-12-11T17:27:09.682Z,97.70
2017-12-11T17:29:37.193Z,97.50
2017-12-11T17:32:05.449Z,97.20
2017-12-11T17:34:33.726Z,97.30
2017-12-11T17:37:02.714Z,97.40
2017-12-11T17:39:30.222Z,97.10
2017-12-11T17:41:57.714Z,97.10
2017-12-11T17:44:25.222Z,97.00
2017-12-11T17:46:53.474Z,96.90
2017-12-11T17:49:20.979Z,96.90
2017-12-11T17:51:48.469Z,96.90
2017-12-11T17:54:15.978Z,96.90
2017-12-11T17:56:43.462Z,96.90
2017-12-11T17:59:10.965Z,96.90
2017-12-11T18:01:38.455Z,96.90
2017-12-11T18:04:05.963Z,96.90
2017-12-11T18:06:33.454Z,96.90
2017-12-11T18:09:01.726Z,96.90
2017-12-11T18:11:29.979Z,96.90
2017-12-11T18:13:57.466Z,96.90
2017-12-11T18:16:25.738Z,96.90
2017-12-11T18:18:53.995Z,96.80
2017-12-11T18:21:21.498Z,96.80
2017-12-11T18:23:48.986Z,96.70
2017-12-11T18:26:16.493Z,96.70
2017-12-11T18:28:44.742Z,96.50
2017-12-11T18:31:12.249Z,96.50
2017-12-11T18:33:39.747Z,96.40
2017-12-11T18:36:07.259Z,96.20
2017-12-11T18:38:34.746Z,96.30
2017-12-11T18:41:02.254Z,96.20
2017-12-11T18:43:30.501Z,96.10
2017-12-11T18:45:58.010Z,96.10
2017-12-11T18:48:25.494Z,96.20
2017-12-11T18:50:53.002Z,96.30
2017-12-11T18:53:21.254Z,96.30
2017-12-11T18:55:48.765Z,96.30
2017-12-11T18:58:16.255Z,96.20
2017-12-11T19:00:43.769Z,96.10
2017-12-11T19:03:11.254Z,96.40
2017-12-11T19:05:38.757Z,96.10
2017-12-11T19:08:06.242Z,96.00
2017-12-11T19:10:34.518Z,95.60
2017-12-11T19:13:02.006Z,96.00
2017-12-11T19:15:29.514Z,95.80
2017-12-11T19:17:57.777Z,95.70
2017-12-11T19:20:25.286Z,95.70
2017-12-11T19:22:52.774Z,95.60
2017-12-11T19:25:20.290Z,95.60
2017-12-11T19:27:47.770Z,95.70
2017-12-11T19:30:15.299Z,95.60
2017-12-11T19:32:43.551Z,95.60
2017-12-11T19:35:11.066Z,95.60
2017-12-11T19:37:38.557Z,95.40
2017-12-11T19:40:06.832Z,95.50
2017-12-11T19:42:34.317Z,95.50
2017-12-11T19:45:02.589Z,95.50
2017-12-11T19:47:30.842Z,95.30
2017-12-11T19:49:58.350Z,95.30
2017-12-11T19:52:25.839Z,95.40
2017-12-11T19:54:53.354Z,95.30
2017-12-11T19:57:20.843Z,95.30
2017-12-11T19:59:48.354Z,95.30
2017-12-11T20:02:16.605Z,95.10
2017-12-11T20:04:44.110Z,95.10
2017-12-11T20:07:11.599Z,95.20
2017-12-11T20:09:39.106Z,95.10
2017-12-11T20:12:07.367Z,95.00
2017-12-11T20:14:34.874Z,94.90
2017-12-11T20:17:02.362Z,95.10
2017-12-11T20:19:29.871Z,95.00
2017-12-11T20:21:58.126Z,94.60
2017-12-11T20:24:25.650Z,94.50
2017-12-11T20:26:53.139Z,94.60
2017-12-11T20:29:20.646Z,94.30
2017-12-11T20:31:48.134Z,94.30
2017-12-11T20:34:15.647Z,94.40
2017-12-11T20:36:43.136Z,94.30
2017-12-11T20:39:10.646Z,94.30
2017-12-11T20:41:38.902Z,94.10
2017-12-11T20:44:06.415Z,94.10
2017-12-11T20:46:33.901Z,94.10
2017-12-11T20:49:01.406Z,94.00
2017-12-11T20:51:28.890Z,94.00
2017-12-11T20:53:56.402Z,93.80
2017-12-11T20:56:24.655Z,93.80
2017-12-11T20:58:52.166Z,93.50
2017-12-11T21:01:19.654Z,93.70
2017-12-11T21:03:47.159Z,93.40
2017-12-11T21:06:15.409Z,93.40
2017-12-11T21:08:42.986Z,93.40
2017-12-11T21:11:10.486Z,93.60
2017-12-11T21:13:38.018Z,93.20
2017-12-11T21:16:05.506Z,92.90
2017-12-11T21:18:33.014Z,92.60
2017-12-11T21:21:00.498Z,92.40
2017-12-11T21:23:28.770Z,91.80
2017-12-11T21:25:57.026Z,91.60
2017-12-11T21:28:24.539Z,91.50
2017-12-11T21:30:52.026Z,91.70
2017-12-11T21:33:19.534Z,91.60
2017-12-11T21:35:47.068Z,91.40
2017-12-11T21:38:14.545Z,91.50
2017-12-11T21:40:42.034Z,91.40
2017-12-11T21:43:09.542Z,91.20
2017-12-11T21:45:37.798Z,90.80
2017-12-11T21:48:05.328Z,90.80
2017-12-11T21:50:32.861Z,90.40
2017-12-11T21:53:00.377Z,90.50
2017-12-11T21:55:27.862Z,90.00
2017-12-11T21:57:56.136Z,90.10
2017-12-11T22:00:24.386Z,89.70
2017-12-11T22:02:51.898Z,89.70
2017-12-11T22:05:19.378Z,89.80
2017-12-11T22:07:46.886Z,90.00
2017-12-11T22:10:15.146Z,89.80
2017-12-11T22:12:43.427Z,88.80
2017-12-11T22:15:11.682Z,89.30
2017-12-11T22:17:39.190Z,89.30
2017-12-11T22:20:06.679Z,88.60
2017-12-11T22:22:34.190Z,87.60
2017-12-11T22:25:02.443Z,87.70
2017-12-11T22:27:29.952Z,87.60
2017-12-11T22:29:57.438Z,87.00
2017-12-11T22:32:24.946Z,87.00
2017-12-11T22:34:53.343Z,87.30
2017-12-11T22:37:20.826Z,87.40
2017-12-11T22:39:48.334Z,86.40
2017-12-11T22:42:16.587Z,85.90
2017-12-11T22:44:44.878Z,86.20
2017-12-11T22:47:13.126Z,86.20
2017-12-11T22:49:40.634Z,86.10
2017-12-11T22:52:08.114Z,86.30
2017-12-11T22:54:35.626Z,85.80
2017-12-11T22:57:03.878Z,86.60
2017-12-11T22:59:31.386Z,85.60
2017-12-11T23:01:58.870Z,85.70
2017-12-11T23:04:26.378Z,84.90
2017-12-11T23:06:54.630Z,85.20
2017-12-11T23:09:22.133Z,85.20
2017-12-11T23:11:49.613Z,85.00
2017-12-11T23:14:17.122Z,84.80
2017-12-11T23:16:44.610Z,84.70
2017-12-11T23:19:12.114Z,84.60
2017-12-11T23:21:39.599Z,85.10
2017-12-11T23:24:07.107Z,84.80
2017-12-11T23:26:34.589Z,85.20
2017-12-11T23:29:02.095Z,84.80
2017-12-11T23:31:29.583Z,84.30
2017-12-11T23:33:57.090Z,84.00
2017-12-11T23:36:24.574Z,84.20
2017-12-11T23:38:52.081Z,84.40
2017-12-11T23:41:19.567Z,83.90
2017-12-11T23:43:47.842Z,83.80
2017-12-11T23:46:16.094Z,84.10
2017-12-11T23:48:43.602Z,84.10
2017-12-11T23:51:11.094Z,84.10
2017-12-11T23:53:38.606Z,84.20
2017-12-11T23:56:06.862Z,84.30
2017-12-11T23:58:34.365Z,84.20
